Florencia — IBPD — position and weather

sailwx.info

Track history (hours):
 
Tides and Currents Weather Stations Pressure Air Temp Water Temp Dewpoint Dewpoint Depression Visibility Wind Speed Wind Dir Waves Ship Positions

Florencia

Last reported at 2016-May-25 02:34 UTC. Time now 2016-May-25 03:24 UTC.
Position N 38°48' E 015°24'.

Length 186 m; draft 6 m.

Type: Passenger vessel. MMSI: 247105900.

Date/timePositionNaut miles runAvg speedWind from/ knotsBaromVisibWave heightAir tempDewpointWater temp
2016-May-25 02:34N 38°48' E 015°24'2121.1
2016-May-25 01:34N 38°29' E 015°36'1717.0
2016-May-25 00:33N 38°12' E 015°37'2020.2
2016-May-24 23:33N 37°53' E 015°28'2221.3
2016-May-24 22:31N 37°33' E 015°16'5 0.3
2016-May-24 05:32N 37°38' E 015°19'2121.6
2016-May-24 04:33N 37°57' E 015°29'2221.6
2016-May-24 03:34N 38°17' E 015°40'2221.5
2016-May-24 02:33N 38°37' E 015°29'2221.3
2016-May-24 01:30N 38°57' E 015°17'8521.5
2016-May-23 21:34N 40°13' E 014°29'2221.8
2016-May-23 20:34N 40°33' E 014°17'1717.4
2016-May-23 19:33N 40°50' E 014°16'3 0.2
2016-May-23 06:33N 40°47' E 014°17'2221.9
2016-May-23 05:33N 40°26' E 014°21'2222.3
2016-May-23 04:33N 40°06' E 014°34'2422.4
2016-May-23 03:28N 39°44' E 014°48'2322.3
2016-May-23 02:27N 39°24' E 015°01'2022.4
2016-May-23 01:33N 39°06' E 015°13'2221.9
2016-May-23 00:33N 38°46' E 015°25'2221.6
2016-May-22 23:33N 38°27' E 015°38'1616.5
2016-May-22 22:33N 38°11' E 015°36'2221.6
2016-May-22 21:33N 37°51' E 015°26'27 1.8
2016-May-22 06:27N 37°29' E 015°06'1112.7
2016-May-22 05:33N 37°36' E 015°17'2121.5
2016-May-22 04:33N 37°56' E 015°28'2221.6
2016-May-22 03:33N 38°15' E 015°39'2120.7
2016-May-22 02:33N 38°35' E 015°31'2221.8
2016-May-22 01:32N 38°55' E 015°18'2121.5
2016-May-22 00:32N 39°14' E 015°06'6521.9
2016-May-21 21:33N 40°13' E 014°30'2221.7
2016-May-21 20:33N 40°33' E 014°17'1817.6
2016-May-21 19:33N 40°50' E 014°16'0 0.0
2016-May-21 18:33N 40°50' E 014°16'0 0.0
2016-May-21 17:33N 40°50' E 014°16'0 0.0
2016-May-21 16:29N 40°50' E 014°16'0 0.0
2016-May-21 15:33N 40°50' E 014°16'0 0.0
2016-May-21 14:28N 40°50' E 014°16'0 0.0
2016-May-21 13:25N 40°50' E 014°16'0 0.0
2016-May-21 12:32N 40°50' E 014°16'0 0.0
2016-May-21 11:32N 40°50' E 014°16'0 0.0
2016-May-21 10:31N 40°50' E 014°16'0 0.0
2016-May-21 09:27N 40°50' E 014°16'0 0.0
2016-May-21 06:31N 40°50' E 014°16'6 6.8
2016-May-21 05:33N 40°44' E 014°17'2121.0
2016-May-21 04:33N 40°23' E 014°23'9221.4
2016-May-21 00:16N 39°01' E 015°16'1621.9
2016-May-20 23:31N 38°46' E 015°24'2121.9
2016-May-20 22:33N 38°27' E 015°37'1616.3
2016-May-20 21:33N 38°11' E 015°37'2120.7
2016-May-20 20:34N 37°52' E 015°27'2221.6
2016-May-20 19:33N 37°33' E 015°15'9 0.6
2016-May-20 05:32N 37°41' E 015°20'2121.6
2016-May-20 04:33N 38°00' E 015°31'2020.4
2016-May-20 03:33N 38°19' E 015°40'15421.3
2016-May-19 20:20N 40°39' E 014°17'107 6.2
2016-May-19 03:08N 39°02' E 015°15'1322.1
2016-May-19 02:33N 38°50' E 015°23'2222.0
2016-May-19 01:33N 38°30' E 015°35'1818.0
2016-May-19 00:33N 38°12' E 015°37'2121.0
2016-May-18 23:33N 37°53' E 015°27'2321.6
2016-May-18 22:31N 37°32' E 015°15'8 0.5
2016-May-18 06:24N 37°29' E 015°06'1314.9
2016-May-18 05:33N 37°37' E 015°18'2221.9
2016-May-18 04:33N 37°57' E 015°29'2121.0
2016-May-18 03:33N 38°16' E 015°40'2121.2
2016-May-18 02:33N 38°36' E 015°29'2121.1
2016-May-18 01:33N 38°55' E 015°17'8621.5
2016-May-17 21:33N 40°13' E 014°30'2221.8
2016-May-17 20:33N 40°32' E 014°18'1817.5
2016-May-17 19:31N 40°50' E 014°16'0 0.0
2016-May-17 09:30N 40°50' E 014°16'1314.3
2016-May-17 08:34N 40°37' E 014°17'2121.3
2016-May-17 07:33N 40°17' E 014°27'9121.6
2016-May-17 03:21N 38°56' E 015°19'1821.7
2016-May-17 02:32N 38°40' E 015°29'2121.7
2016-May-17 01:33N 38°21' E 015°41'1817.8
2016-May-17 00:34N 38°04' E 015°34'2121.3
2016-May-16 23:33N 37°45' E 015°23'20 1.0
2016-May-16 04:16N 37°28' E 015°08'1216.6
2016-May-16 03:31N 37°37' E 015°19'2121.4
2016-May-16 02:33N 37°56' E 015°29'2121.0
2016-May-16 01:33N 38°16' E 015°40'2120.7
2016-May-16 00:33N 38°35' E 015°30'2221.5
2016-May-15 23:32N 38°55' E 015°19'125 8.9
2016-May-15 09:31N 40°50' E 014°16'1212.5
2016-May-15 08:34N 40°38' E 014°17'2020.5
2016-May-15 07:34N 40°19' E 014°27'8920.6
2016-May-15 03:14N 38°59' E 015°17'  
Track history (hours):
 
Tides and Currents Weather Stations Pressure Air Temp Water Temp Dewpoint Dewpoint Depression Visibility Wind Speed Wind Dir Waves Ship Positions

Florencia

Last reported at 2016-May-25 02:34 UTC. Time now 2016-May-25 03:24 UTC.
Position N 38°48' E 015°24'.

Length 186 m; draft 6 m.

Type: Passenger vessel. MMSI: 247105900.

Date/timePositionNaut miles runAvg speedWind from/ knotsBaromVisibWave heightAir tempDewpointWater temp
2016-May-25 02:34N 38°48' E 015°24'2121.1
2016-May-25 01:34N 38°29' E 015°36'1717.0
2016-May-25 00:33N 38°12' E 015°37'2020.2
2016-May-24 23:33N 37°53' E 015°28'2221.3
2016-May-24 22:31N 37°33' E 015°16'5 0.3
2016-May-24 05:32N 37°38' E 015°19'2121.6
2016-May-24 04:33N 37°57' E 015°29'2221.6
2016-May-24 03:34N 38°17' E 015°40'2221.5
2016-May-24 02:33N 38°37' E 015°29'2221.3
2016-May-24 01:30N 38°57' E 015°17'8521.5
2016-May-23 21:34N 40°13' E 014°29'2221.8
2016-May-23 20:34N 40°33' E 014°17'1717.4
2016-May-23 19:33N 40°50' E 014°16'3 0.2
2016-May-23 06:33N 40°47' E 014°17'2221.9
2016-May-23 05:33N 40°26' E 014°21'2222.3
2016-May-23 04:33N 40°06' E 014°34'2422.4
2016-May-23 03:28N 39°44' E 014°48'2322.3
2016-May-23 02:27N 39°24' E 015°01'2022.4
2016-May-23 01:33N 39°06' E 015°13'2221.9
2016-May-23 00:33N 38°46' E 015°25'2221.6
2016-May-22 23:33N 38°27' E 015°38'1616.5
2016-May-22 22:33N 38°11' E 015°36'2221.6
2016-May-22 21:33N 37°51' E 015°26'27 1.8
2016-May-22 06:27N 37°29' E 015°06'1112.7
2016-May-22 05:33N 37°36' E 015°17'2121.5
2016-May-22 04:33N 37°56' E 015°28'2221.6
2016-May-22 03:33N 38°15' E 015°39'2120.7
2016-May-22 02:33N 38°35' E 015°31'2221.8
2016-May-22 01:32N 38°55' E 015°18'2121.5
2016-May-22 00:32N 39°14' E 015°06'6521.9
2016-May-21 21:33N 40°13' E 014°30'2221.7
2016-May-21 20:33N 40°33' E 014°17'1817.6
2016-May-21 19:33N 40°50' E 014°16'0 0.0
2016-May-21 18:33N 40°50' E 014°16'0 0.0
2016-May-21 17:33N 40°50' E 014°16'0 0.0
2016-May-21 16:29N 40°50' E 014°16'0 0.0
2016-May-21 15:33N 40°50' E 014°16'0 0.0
2016-May-21 14:28N 40°50' E 014°16'0 0.0
2016-May-21 13:25N 40°50' E 014°16'0 0.0
2016-May-21 12:32N 40°50' E 014°16'0 0.0
2016-May-21 11:32N 40°50' E 014°16'0 0.0
2016-May-21 10:31N 40°50' E 014°16'0 0.0
2016-May-21 09:27N 40°50' E 014°16'0 0.0
2016-May-21 06:31N 40°50' E 014°16'6 6.8
2016-May-21 05:33N 40°44' E 014°17'2121.0
2016-May-21 04:33N 40°23' E 014°23'9221.4
2016-May-21 00:16N 39°01' E 015°16'1621.9
2016-May-20 23:31N 38°46' E 015°24'2121.9
2016-May-20 22:33N 38°27' E 015°37'1616.3
2016-May-20 21:33N 38°11' E 015°37'2120.7
2016-May-20 20:34N 37°52' E 015°27'2221.6
2016-May-20 19:33N 37°33' E 015°15'9 0.6
2016-May-20 05:32N 37°41' E 015°20'2121.6
2016-May-20 04:33N 38°00' E 015°31'2020.4
2016-May-20 03:33N 38°19' E 015°40'15421.3
2016-May-19 20:20N 40°39' E 014°17'107 6.2
2016-May-19 03:08N 39°02' E 015°15'1322.1
2016-May-19 02:33N 38°50' E 015°23'2222.0
2016-May-19 01:33N 38°30' E 015°35'1818.0
2016-May-19 00:33N 38°12' E 015°37'2121.0
2016-May-18 23:33N 37°53' E 015°27'2321.6
2016-May-18 22:31N 37°32' E 015°15'8 0.5
2016-May-18 06:24N 37°29' E 015°06'1314.9
2016-May-18 05:33N 37°37' E 015°18'2221.9
2016-May-18 04:33N 37°57' E 015°29'2121.0
2016-May-18 03:33N 38°16' E 015°40'2121.2
2016-May-18 02:33N 38°36' E 015°29'2121.1
2016-May-18 01:33N 38°55' E 015°17'8621.5
2016-May-17 21:33N 40°13' E 014°30'2221.8
2016-May-17 20:33N 40°32' E 014°18'1817.5
2016-May-17 19:31N 40°50' E 014°16'0 0.0
2016-May-17 09:30N 40°50' E 014°16'1314.3
2016-May-17 08:34N 40°37' E 014°17'2121.3
2016-May-17 07:33N 40°17' E 014°27'9121.6
2016-May-17 03:21N 38°56' E 015°19'1821.7
2016-May-17 02:32N 38°40' E 015°29'2121.7
2016-May-17 01:33N 38°21' E 015°41'1817.8
2016-May-17 00:34N 38°04' E 015°34'2121.3
2016-May-16 23:33N 37°45' E 015°23'20 1.0
2016-May-16 04:16N 37°28' E 015°08'1216.6
2016-May-16 03:31N 37°37' E 015°19'2121.4
2016-May-16 02:33N 37°56' E 015°29'2121.0
2016-May-16 01:33N 38°16' E 015°40'2120.7
2016-May-16 00:33N 38°35' E 015°30'2221.5
2016-May-15 23:32N 38°55' E 015°19'125 8.9
2016-May-15 09:31N 40°50' E 014°16'1212.5
2016-May-15 08:34N 40°38' E 014°17'2020.5
2016-May-15 07:34N 40°19' E 014°27'8920.6
2016-May-15 03:14N 38°59' E 015°17'  

Dump ship's entire track history